createdAt,value
2019-02-28T00:02:00.639Z,82.44
2019-02-28T00:04:32.106Z,83.56
2019-02-28T00:06:57.089Z,84.24
2019-02-28T00:09:25.658Z,83.41
2019-02-28T00:11:52.435Z,83.30
2019-02-28T00:14:19.167Z,83.89
2019-02-28T00:16:45.950Z,83.21
2019-02-28T00:19:12.825Z,82.68
2019-02-28T00:21:40.613Z,82.09
2019-02-28T00:24:08.408Z,82.08
2019-02-28T00:26:35.301Z,82.59
2019-02-28T00:29:02.029Z,82.93
2019-02-28T00:31:41.985Z,83.28
2019-02-28T00:34:08.807Z,82.51
2019-02-28T00:36:35.531Z,81.91
2019-02-28T00:41:42.913Z,81.58
2019-02-28T00:44:06.561Z,82.22
2019-02-28T00:46:33.795Z,82.93
2019-02-28T00:49:00.869Z,82.60
2019-02-28T00:51:29.768Z,82.40
2019-02-28T00:53:56.206Z,82.74
2019-02-28T00:56:23.169Z,82.40
2019-02-28T00:58:49.812Z,83.01
2019-02-28T01:01:16.802Z,80.58
2019-02-28T01:03:43.654Z,80.48
2019-02-28T01:06:10.669Z,79.61
2019-02-28T01:08:39.372Z,78.68
2019-02-28T01:11:06.149Z,78.27
2019-02-28T01:13:32.883Z,77.33
2019-02-28T01:15:59.775Z,77.08
2019-02-28T01:18:27.042Z,77.50
2019-02-28T01:20:54.061Z,76.69
2019-02-28T01:23:20.972Z,76.80
2019-02-28T01:25:47.927Z,76.80
2019-02-28T01:28:14.656Z,77.32
2019-02-28T01:30:41.373Z,78.03
2019-02-28T01:33:24.581Z,78.01
2019-02-28T01:35:49.641Z,79.00
2019-02-28T01:38:16.372Z,78.39
2019-02-28T01:40:43.245Z,76.89
2019-02-28T01:43:10.467Z,76.50
2019-02-28T01:45:37.213Z,77.62
2019-02-28T01:48:04.116Z,77.47
2019-02-28T01:50:30.947Z,77.73
2019-02-28T01:52:58.192Z,77.52
2019-02-28T01:55:25.181Z,77.42
2019-02-28T01:57:51.802Z,77.74
2019-02-28T02:00:18.534Z,77.49
2019-02-28T02:02:45.313Z,76.60
2019-02-28T02:05:12.244Z,76.74
2019-02-28T02:07:39.549Z,76.93
2019-02-28T02:12:47.312Z,76.34
2019-02-28T02:15:16.795Z,75.95
2019-02-28T02:17:42.709Z,77.03
2019-02-28T02:20:09.723Z,75.89
2019-02-28T02:22:36.444Z,76.38
2019-02-28T02:25:04.247Z,77.06
2019-02-28T02:27:32.533Z,75.79
2019-02-28T02:29:59.887Z,76.24
2019-02-28T02:32:26.980Z,76.54
2019-02-28T02:35:08.336Z,77.68
2019-02-28T02:37:35.144Z,78.73
2019-02-28T02:40:01.894Z,78.28
2019-02-28T02:42:28.940Z,79.41
2019-02-28T02:44:55.670Z,80.33
2019-02-28T02:47:22.684Z,80.87
2019-02-28T02:49:56.097Z,81.50
2019-02-28T02:52:25.879Z,81.69
2019-02-28T02:54:47.127Z,82.47
2019-02-28T02:57:15.642Z,81.15
2019-02-28T02:59:43.174Z,81.97
2019-02-28T03:02:10.206Z,82.36
2019-02-28T03:04:58.547Z,82.71
2019-02-28T03:07:25.300Z,82.70
2019-02-28T03:09:52.441Z,79.67
2019-02-28T03:12:19.150Z,80.34
2019-02-28T03:14:48.685Z,80.76
2019-02-28T03:19:43.510Z,80.99
2019-02-28T03:22:10.513Z,82.89
2019-02-28T03:24:37.141Z,83.16
2019-02-28T03:27:03.992Z,82.52
2019-02-28T03:29:30.778Z,81.52
2019-02-28T03:31:59.564Z,83.06
2019-02-28T03:34:26.377Z,84.03
2019-02-28T03:36:57.054Z,84.62
2019-02-28T03:39:24.496Z,84.05
2019-02-28T03:41:52.938Z,84.61
2019-02-28T03:44:21.683Z,84.95
2019-02-28T03:46:49.454Z,84.55
2019-02-28T03:49:17.028Z,84.35
2019-02-28T03:51:44.607Z,83.74
2019-02-28T03:54:11.644Z,84.16
2019-02-28T03:56:38.735Z,84.80
2019-02-28T03:59:05.980Z,85.20
2019-02-28T04:01:33.593Z,85.30
2019-02-28T04:04:48.694Z,86.11
2019-02-28T04:07:15.558Z,85.91
2019-02-28T04:09:43.786Z,87.13
2019-02-28T04:12:18.103Z,87.60
2019-02-28T04:14:44.804Z,86.31
2019-02-28T04:17:11.896Z,85.07
2019-02-28T04:19:38.971Z,84.20
2019-02-28T04:22:05.867Z,85.17
2019-02-28T04:24:52.498Z,85.33
2019-02-28T04:27:19.880Z,86.35
2019-02-28T04:29:47.317Z,85.21
2019-02-28T04:32:14.994Z,84.84
2019-02-28T04:34:48.533Z,83.73
2019-02-28T04:37:11.245Z,83.88
2019-02-28T04:39:39.031Z,83.46
2019-02-28T04:42:06.124Z,83.77
2019-02-28T04:44:34.562Z,84.04
2019-02-28T04:47:03.460Z,83.08
2019-02-28T04:49:30.555Z,83.10
2019-02-28T04:51:57.632Z,83.85
2019-02-28T04:54:27.903Z,83.13
2019-02-28T04:56:54.079Z,83.41
2019-02-28T04:59:21.026Z,84.01
2019-02-28T05:01:48.153Z,84.46
2019-02-28T05:04:14.773Z,85.42
2019-02-28T05:06:41.611Z,85.15
2019-02-28T05:09:10.738Z,86.05
2019-02-28T05:11:37.429Z,84.69
2019-02-28T05:14:04.165Z,84.62
2019-02-28T05:16:31.531Z,84.23
2019-02-28T05:19:17.784Z,84.76
2019-02-28T05:21:44.674Z,84.83
2019-02-28T05:24:11.577Z,85.25
2019-02-28T05:26:38.454Z,85.25
2019-02-28T05:29:05.993Z,86.12
2019-02-28T05:31:32.760Z,87.13
2019-02-28T05:33:59.428Z,87.46
2019-02-28T05:36:26.362Z,88.08
2019-02-28T05:38:53.539Z,88.96
2019-02-28T05:41:22.537Z,90.04
2019-02-28T05:43:49.467Z,90.04
2019-02-28T05:46:16.142Z,90.56
2019-02-28T05:49:02.906Z,91.29
2019-02-28T05:51:29.865Z,91.52
2019-02-28T05:54:17.223Z,91.55
2019-02-28T05:56:45.443Z,91.49
2019-02-28T05:59:13.195Z,91.60
2019-02-28T06:01:40.386Z,91.54
2019-02-28T06:04:07.275Z,92.09
2019-02-28T06:06:34.463Z,91.83
2019-02-28T06:09:01.284Z,91.88
2019-02-28T06:11:28.072Z,92.42
2019-02-28T06:13:54.878Z,93.41
2019-02-28T06:16:21.745Z,93.36
2019-02-28T06:18:48.385Z,92.64
2019-02-28T06:21:15.135Z,93.18
2019-02-28T06:26:15.357Z,93.32
2019-02-28T06:28:42.833Z,93.52
2019-02-28T06:31:09.477Z,93.40
2019-02-28T06:33:36.522Z,93.25
2019-02-28T06:36:04.640Z,93.80
2019-02-28T06:38:32.300Z,92.54
2019-02-28T06:41:12.351Z,90.54
2019-02-28T06:43:39.525Z,88.43
2019-02-28T06:46:08.478Z,87.98
2019-02-28T06:51:08.839Z,86.73
2019-02-28T06:56:19.289Z,85.63
2019-02-28T06:58:45.564Z,85.48
2019-02-28T07:01:12.304Z,84.89
2019-02-28T07:03:39.861Z,84.83
2019-02-28T07:06:08.110Z,84.45
2019-02-28T07:08:35.580Z,84.02
2019-02-28T07:11:02.778Z,82.52
2019-02-28T07:13:29.890Z,81.12
2019-02-28T07:15:59.086Z,80.23
2019-02-28T07:18:26.713Z,79.34
2019-02-28T07:20:53.794Z,78.89
2019-02-28T07:23:22.259Z,78.30
2019-02-28T07:25:50.094Z,77.84
2019-02-28T07:28:17.529Z,77.79
2019-02-28T07:30:44.646Z,77.17
2019-02-28T07:33:11.901Z,76.98
2019-02-28T07:35:38.998Z,76.79
2019-02-28T07:38:06.268Z,76.30
2019-02-28T07:40:33.970Z,76.37
2019-02-28T07:43:01.533Z,76.46
2019-02-28T07:45:29.675Z,75.89
2019-02-28T07:47:58.099Z,75.92
2019-02-28T07:50:25.929Z,75.22
2019-02-28T07:52:53.244Z,75.42
2019-02-28T07:55:20.514Z,74.84
2019-02-28T07:57:51.188Z,74.38
2019-02-28T08:00:18.513Z,74.03
2019-02-28T08:05:20.180Z,73.10
2019-02-28T08:07:51.816Z,72.87
2019-02-28T08:10:17.054Z,71.94
2019-02-28T08:12:43.800Z,71.44
2019-02-28T08:15:13.728Z,71.41
2019-02-28T08:17:43.933Z,71.03
2019-02-28T08:20:09.658Z,70.37
2019-02-28T08:22:36.499Z,70.46
2019-02-28T08:25:03.506Z,70.37
2019-02-28T08:27:30.549Z,70.55
2019-02-28T08:29:57.298Z,69.74
2019-02-28T08:32:24.289Z,69.49
2019-02-28T08:34:51.348Z,69.63
2019-02-28T08:37:19.055Z,69.61
2019-02-28T08:39:46.783Z,69.08
2019-02-28T08:42:13.531Z,68.71
2019-02-28T08:44:58.049Z,68.01
2019-02-28T08:47:22.019Z,67.92
2019-02-28T08:49:48.799Z,67.53
2019-02-28T08:52:16.059Z,67.13
2019-02-28T08:54:43.557Z,67.12
2019-02-28T08:57:10.490Z,66.88
2019-02-28T08:59:37.610Z,66.98
2019-02-28T09:02:04.516Z,67.41
2019-02-28T09:04:31.143Z,67.56
2019-02-28T09:06:58.034Z,68.27
2019-02-28T09:09:25.155Z,68.49
2019-02-28T09:11:53.158Z,68.12
2019-02-28T09:14:21.711Z,68.56
2019-02-28T09:16:48.734Z,68.22
2019-02-28T09:19:15.760Z,68.17
2019-02-28T09:21:42.867Z,68.46
2019-02-28T09:24:12.719Z,67.16
2019-02-28T09:26:38.383Z,67.49
2019-02-28T09:29:05.178Z,67.16
2019-02-28T09:31:32.021Z,66.88
2019-02-28T09:33:59.818Z,66.27
2019-02-28T09:36:28.091Z,65.83
2019-02-28T09:38:57.218Z,64.37
2019-02-28T09:41:24.390Z,64.26
2019-02-28T09:43:51.185Z,63.58
2019-02-28T09:46:18.842Z,63.27
2019-02-28T09:48:47.678Z,61.74
2019-02-28T09:51:15.006Z,60.12
2019-02-28T09:53:42.513Z,59.67
2019-02-28T09:56:10.503Z,60.15
2019-02-28T09:58:39.715Z,59.80
2019-02-28T10:01:06.951Z,59.40
2019-02-28T10:03:35.194Z,59.24
2019-02-28T10:06:02.392Z,58.35
2019-02-28T10:08:29.534Z,56.54
2019-02-28T10:10:57.030Z,57.17
2019-02-28T10:13:25.813Z,57.55
2019-02-28T10:15:53.914Z,56.74
2019-02-28T10:18:21.088Z,55.89
2019-02-28T10:20:48.236Z,56.48
2019-02-28T10:23:18.376Z,56.16
2019-02-28T10:25:44.171Z,55.99
2019-02-28T10:28:10.980Z,57.26
2019-02-28T10:30:37.756Z,55.86
2019-02-28T10:33:04.801Z,55.61
2019-02-28T10:35:33.468Z,55.11
2019-02-28T10:38:00.844Z,55.67
2019-02-28T10:40:28.333Z,55.70
2019-02-28T10:42:55.638Z,55.90
2019-02-28T10:45:22.748Z,55.97
2019-02-28T10:48:03.947Z,56.53
2019-02-28T10:50:33.274Z,56.97
2019-02-28T10:53:04.256Z,57.00
2019-02-28T10:55:29.736Z,56.08
2019-02-28T10:57:56.847Z,55.29
2019-02-28T11:00:29.426Z,55.08
2019-02-28T11:02:57.752Z,55.27
2019-02-28T11:05:53.407Z,55.02
2019-02-28T11:08:19.035Z,54.87
2019-02-28T11:10:46.136Z,53.72
2019-02-28T11:13:14.790Z,55.16
2019-02-28T11:15:47.933Z,55.09
2019-02-28T11:18:11.490Z,56.36
2019-02-28T11:20:39.441Z,57.19
2019-02-28T11:23:07.779Z,58.15
2019-02-28T11:25:36.376Z,57.53
2019-02-28T11:28:03.584Z,57.74
2019-02-28T11:30:30.596Z,57.19
2019-02-28T11:33:03.049Z,57.91
2019-02-28T11:35:26.638Z,57.79
2019-02-28T11:37:53.863Z,57.77
2019-02-28T11:40:43.911Z,58.55
2019-02-28T11:43:52.633Z,58.43
2019-02-28T11:46:19.368Z,58.27
2019-02-28T11:48:59.891Z,57.56
2019-02-28T11:51:27.403Z,57.45
2019-02-28T11:53:54.526Z,56.94
2019-02-28T11:56:22.180Z,56.40
2019-02-28T11:58:51.755Z,55.88
2019-02-28T12:01:19.056Z,56.26
2019-02-28T12:03:46.703Z,56.73
2019-02-28T12:06:14.018Z,55.40
2019-02-28T12:08:41.595Z,56.06
2019-02-28T12:11:10.220Z,55.29
2019-02-28T12:13:37.365Z,55.46
2019-02-28T12:16:04.521Z,55.46
2019-02-28T12:18:31.707Z,55.97
2019-02-28T12:21:02.100Z,55.33
2019-02-28T12:23:28.366Z,54.61
2019-02-28T12:25:55.536Z,53.03
2019-02-28T12:28:23.048Z,52.57
2019-02-28T12:30:50.184Z,53.37
2019-02-28T12:33:37.035Z,52.26
2019-02-28T12:36:04.290Z,52.43
2019-02-28T12:38:31.440Z,53.13
2019-02-28T12:40:58.297Z,54.45
2019-02-28T12:43:25.666Z,53.94
2019-02-28T12:45:53.589Z,54.56
2019-02-28T12:48:21.336Z,56.16
2019-02-28T12:51:02.282Z,54.82
2019-02-28T12:53:29.516Z,54.67
2019-02-28T12:55:56.262Z,55.18
2019-02-28T12:58:23.525Z,56.51
2019-02-28T13:00:50.634Z,57.39
2019-02-28T13:03:20.292Z,57.98
2019-02-28T13:05:48.105Z,58.28
2019-02-28T13:08:15.479Z,57.81
2019-02-28T13:10:43.479Z,58.17
2019-02-28T13:13:11.169Z,58.39
2019-02-28T13:15:38.338Z,58.81
2019-02-28T13:18:08.862Z,58.53
2019-02-28T13:20:36.414Z,59.10
2019-02-28T13:23:03.998Z,58.95
2019-02-28T13:25:31.071Z,58.34
2019-02-28T13:27:58.165Z,58.68
2019-02-28T13:30:25.424Z,58.44
2019-02-28T13:32:52.936Z,58.30
2019-02-28T13:35:22.489Z,58.44
2019-02-28T13:37:49.711Z,59.05
2019-02-28T13:40:16.847Z,59.45
2019-02-28T13:42:43.991Z,59.83
2019-02-28T13:45:16.211Z,59.39
2019-02-28T13:47:42.019Z,60.49
2019-02-28T13:50:17.310Z,59.92
2019-02-28T13:52:44.670Z,60.01
2019-02-28T13:55:14.199Z,59.63
2019-02-28T13:57:43.678Z,59.90
2019-02-28T14:00:53.092Z,59.57
2019-02-28T14:03:20.241Z,60.09
2019-02-28T14:05:47.758Z,60.71
2019-02-28T14:08:15.181Z,60.29
2019-02-28T14:10:42.852Z,60.75
2019-02-28T14:13:09.998Z,60.60
2019-02-28T14:15:39.479Z,60.61
2019-02-28T14:18:07.563Z,60.38
2019-02-28T14:20:35.649Z,60.79
2019-02-28T14:23:02.725Z,60.58
2019-02-28T14:25:29.705Z,60.54
2019-02-28T14:27:56.878Z,60.15
2019-02-28T14:30:26.108Z,60.48
2019-02-28T14:32:53.589Z,60.24
2019-02-28T14:35:22.891Z,60.55
2019-02-28T14:37:51.886Z,60.95
2019-02-28T14:40:19.430Z,61.24
2019-02-28T14:42:46.381Z,61.00
2019-02-28T14:45:14.237Z,61.47
2019-02-28T14:47:42.611Z,61.10
2019-02-28T14:50:10.379Z,61.15
2019-02-28T14:52:39.404Z,60.84
2019-02-28T14:55:08.837Z,61.37
2019-02-28T14:57:35.927Z,61.38
2019-02-28T15:03:02.772Z,61.27
2019-02-28T15:05:28.974Z,61.17
2019-02-28T15:08:36.891Z,61.79
2019-02-28T15:11:06.477Z,61.66
2019-02-28T15:13:33.481Z,61.80
2019-02-28T15:16:01.989Z,62.28
2019-02-28T15:18:28.949Z,62.21
2019-02-28T15:20:55.691Z,62.83
2019-02-28T15:23:22.518Z,62.51
2019-02-28T15:25:50.810Z,63.29
2019-02-28T15:28:18.838Z,63.00
2019-02-28T15:30:46.045Z,63.30
2019-02-28T15:33:13.997Z,63.45
2019-02-28T15:35:41.897Z,63.25
2019-02-28T15:38:10.424Z,63.84
2019-02-28T15:40:40.479Z,64.11
2019-02-28T15:43:07.223Z,64.72
2019-02-28T15:45:36.135Z,64.64
2019-02-28T15:48:22.584Z,65.15
2019-02-28T15:50:51.815Z,65.34
2019-02-28T15:53:18.846Z,65.64
2019-02-28T15:55:46.209Z,65.85
2019-02-28T15:58:13.885Z,66.43
2019-02-28T16:00:41.350Z,66.71
2019-02-28T16:03:09.024Z,67.17
2019-02-28T16:05:42.619Z,67.19
2019-02-28T16:08:09.362Z,67.48
2019-02-28T16:10:53.799Z,67.94
2019-02-28T16:13:22.646Z,68.22
2019-02-28T16:15:50.293Z,68.67
2019-02-28T16:18:19.097Z,69.23
2019-02-28T16:20:46.963Z,69.28
2019-02-28T16:23:14.496Z,70.01
2019-02-28T16:25:42.050Z,70.15
2019-02-28T16:28:09.257Z,70.70
2019-02-28T16:30:36.528Z,70.73
2019-02-28T16:33:04.005Z,71.59
2019-02-28T16:35:31.457Z,71.47
2019-02-28T16:37:58.905Z,72.03
2019-02-28T16:40:27.215Z,72.53
2019-02-28T16:42:54.791Z,72.45
2019-02-28T16:45:26.465Z,72.72
2019-02-28T16:47:55.710Z,72.66
2019-02-28T16:50:22.806Z,73.20
2019-02-28T16:52:50.825Z,74.06
2019-02-28T16:55:18.168Z,74.08
2019-02-28T16:57:47.095Z,74.76
2019-02-28T17:03:44.293Z,75.40
2019-02-28T17:06:11.812Z,76.00
2019-02-28T17:11:21.078Z,76.79
2019-02-28T17:13:54.427Z,76.95
2019-02-28T17:16:41.363Z,77.29
2019-02-28T17:19:08.621Z,77.50
2019-02-28T17:21:36.722Z,78.02
2019-02-28T17:24:23.592Z,77.77
2019-02-28T17:27:10.505Z,78.08
2019-02-28T17:29:42.164Z,78.56
2019-02-28T17:32:09.547Z,78.87
2019-02-28T17:34:37.210Z,79.51
2019-02-28T17:37:25.896Z,79.73
2019-02-28T17:39:52.499Z,79.62
2019-02-28T17:42:19.248Z,80.12
2019-02-28T17:45:26.216Z,80.67
2019-02-28T17:48:42.195Z,80.46
2019-02-28T17:51:48.157Z,81.22
2019-02-28T17:54:54.219Z,81.74
2019-02-28T17:58:01.904Z,82.06
2019-02-28T18:00:48.162Z,82.42
2019-02-28T18:03:53.292Z,82.80
2019-02-28T18:06:59.170Z,83.27
2019-02-28T18:10:06.047Z,84.07
2019-02-28T18:13:12.086Z,85.62
2019-02-28T18:16:21.384Z,86.60
2019-02-28T18:19:33.027Z,87.49
2019-02-28T18:22:33.958Z,88.45
2019-02-28T18:25:14.047Z,88.98
2019-02-28T18:28:22.606Z,89.59
2019-02-28T18:31:11.587Z,90.28
2019-02-28T18:33:41.758Z,90.54
2019-02-28T18:36:12.033Z,90.56
2019-02-28T18:38:38.878Z,91.76
2019-02-28T18:41:06.591Z,91.85
2019-02-28T18:43:34.826Z,91.55
2019-02-28T18:46:01.557Z,91.50
2019-02-28T18:48:28.603Z,92.91
2019-02-28T18:50:56.230Z,92.98
2019-02-28T18:53:22.999Z,94.10
2019-02-28T18:55:50.624Z,93.45
2019-02-28T18:58:37.014Z,92.96
2019-02-28T19:01:04.253Z,93.29
2019-02-28T19:03:30.982Z,93.79
2019-02-28T19:05:57.882Z,93.40
2019-02-28T19:08:24.874Z,93.88
2019-02-28T19:10:52.351Z,94.16
2019-02-28T19:13:19.159Z,94.25
2019-02-28T19:15:46.081Z,95.20
2019-02-28T19:18:12.947Z,94.77
2019-02-28T19:20:59.311Z,95.26
2019-02-28T19:23:26.503Z,95.03
2019-02-28T19:25:53.569Z,96.58
2019-02-28T19:28:20.511Z,97.30
2019-02-28T19:30:47.913Z,97.08
2019-02-28T19:33:14.708Z,96.37
2019-02-28T19:35:41.881Z,96.34
2019-02-28T19:38:09.010Z,97.88
2019-02-28T19:40:36.101Z,98.64
2019-02-28T19:43:03.210Z,98.99
2019-02-28T19:45:30.099Z,98.37
2019-02-28T19:47:56.834Z,97.76
2019-02-28T19:50:24.089Z,98.23
2019-02-28T19:52:50.984Z,98.46
2019-02-28T19:55:17.858Z,100.00
2019-02-28T19:58:05.069Z,100.00
2019-02-28T20:00:32.146Z,100.00
2019-02-28T20:03:12.650Z,100.00
2019-02-28T20:05:39.518Z,100.00
2019-02-28T20:08:06.265Z,100.00
2019-02-28T20:10:33.247Z,100.00
2019-02-28T20:13:00.445Z,100.00
2019-02-28T20:21:11.433Z,100.00
2019-02-28T20:23:38.470Z,99.94
2019-02-28T20:26:05.239Z,100.00
2019-02-28T20:28:32.382Z,99.81
2019-02-28T20:30:59.401Z,99.71
2019-02-28T20:33:26.145Z,99.63
2019-02-28T20:35:53.553Z,99.21
2019-02-28T20:38:20.422Z,98.69
2019-02-28T20:40:47.173Z,98.64
2019-02-28T20:43:14.068Z,98.48
2019-02-28T20:45:41.191Z,98.81
2019-02-28T20:48:08.655Z,98.73
2019-02-28T20:50:37.805Z,98.32
2019-02-28T20:53:05.452Z,98.39
2019-02-28T20:55:33.708Z,98.20
2019-02-28T20:58:00.862Z,97.45
2019-02-28T21:00:28.131Z,97.17
2019-02-28T21:02:55.117Z,96.82
2019-02-28T21:05:34.316Z,96.74
2019-02-28T21:08:01.531Z,97.17
2019-02-28T21:10:28.291Z,96.53
2019-02-28T21:12:55.412Z,95.76
2019-02-28T21:15:22.265Z,95.74
2019-02-28T21:17:49.151Z,95.49
2019-02-28T21:20:16.251Z,95.65
2019-02-28T21:22:43.103Z,95.43
2019-02-28T21:25:10.368Z,95.36
2019-02-28T21:27:38.129Z,95.71
2019-02-28T21:30:11.392Z,95.40
2019-02-28T21:32:38.135Z,94.87
2019-02-28T21:35:05.460Z,93.84
2019-02-28T21:37:32.212Z,94.25
2019-02-28T21:40:00.754Z,93.54
2019-02-28T21:42:28.522Z,94.21
2019-02-28T21:44:55.812Z,93.45
2019-02-28T21:50:31.888Z,93.04
2019-02-28T21:52:58.641Z,93.16
2019-02-28T21:55:25.390Z,92.81
2019-02-28T21:57:52.542Z,92.17
2019-02-28T22:00:21.223Z,92.01
2019-02-28T22:02:48.060Z,91.77
2019-02-28T22:05:15.298Z,91.83
2019-02-28T22:07:42.127Z,92.27
2019-02-28T22:10:09.949Z,91.85
2019-02-28T22:12:37.111Z,92.46
2019-02-28T22:15:04.934Z,93.08
2019-02-28T22:17:31.785Z,92.71
2019-02-28T22:19:58.565Z,92.90
2019-02-28T22:22:25.633Z,91.84
2019-02-28T22:24:52.711Z,90.64
2019-02-28T22:27:19.794Z,91.68
2019-02-28T22:29:46.836Z,91.19
2019-02-28T22:32:24.160Z,91.27
2019-02-28T22:35:06.207Z,89.69
2019-02-28T22:37:33.332Z,90.25
2019-02-28T22:39:59.974Z,90.02
2019-02-28T22:42:26.831Z,90.18
2019-02-28T22:44:53.578Z,90.47
2019-02-28T22:47:20.592Z,88.71
2019-02-28T22:49:48.163Z,88.54
2019-02-28T22:52:15.210Z,88.19
2019-02-28T22:54:41.986Z,89.14
2019-02-28T22:57:08.823Z,88.54
2019-02-28T22:59:35.709Z,88.48
2019-02-28T23:02:02.564Z,88.22
2019-02-28T23:04:29.804Z,87.38
2019-02-28T23:06:56.556Z,87.42
2019-02-28T23:09:23.718Z,87.87
2019-02-28T23:11:50.861Z,87.57
2019-02-28T23:14:18.012Z,87.99
2019-02-28T23:16:45.070Z,89.30
2019-02-28T23:19:12.262Z,90.03
2019-02-28T23:21:39.699Z,89.86
2019-02-28T23:24:06.460Z,90.50
2019-02-28T23:27:12.641Z,91.05
2019-02-28T23:29:43.495Z,90.67
2019-02-28T23:32:49.586Z,90.65
2019-02-28T23:35:20.704Z,91.18
2019-02-28T23:37:47.803Z,92.30
2019-02-28T23:40:15.027Z,91.93
2019-02-28T23:42:42.152Z,92.26
2019-02-28T23:45:10.075Z,93.15
2019-02-28T23:47:37.425Z,93.39
2019-02-28T23:50:04.998Z,93.53
2019-02-28T23:52:32.474Z,94.55
2019-02-28T23:54:59.830Z,95.29
2019-02-28T23:57:27.284Z,95.21
2019-02-28T23:59:54.747Z,95.07
